Airfield :
LOGIN :

Register | Disclaimer

   EN    FR    IT 

 










Legend :    VFR   Marginal VFR   IFR   Intensive IFR   Very Intensive IFR
Visi :
Ceiling :
>= 8 km
>= 3000ft
5 to 8 km
1000 to 3000 ft
1500m to 5 km
500 to 1000 ft
800 to 1500m
200 to 500 ft
< 800m
< 200 ft
Symbols :   Thunderstorms  Fog  Heavy snow  Heavy precipitations  Wind > 20 kt
SIGMETs :     Misc.  Thunderstorms  Icing  Turbulence  Mountain Waves  Volcanic Ashes






- Airport Elevation : 1036 ft
- IATA code : ERF


EDDE - Erfurt

CURRENT METAR :
  • 280720Z 13003KT 100V160 0100 R28/0300N FZFG VV/// M00/M00 Q1022 NOSIG

EXPIRED METARs :
  • 280650Z VRB02KT 0100 R28/0300N FZFG VV/// M00/M00 Q1022 NOSIG
  • 280620Z 06003KT 030V110 0100 R28/0350N FZFG VV/// M01/M01 Q1021 NOSIG
  • 280550Z 04004KT 020V080 0100 R28/0325N FZFG VV/// M01/M01 Q1021 NOSIG
  • 280520Z VRB02KT 0100 R28/0325N FZFG VV/// M00/M00 Q1021 NOSIG
  • 280450Z 05003KT 020V080 0100 R28/0300N FZFG VV/// M00/M00 Q1021 NOSIG

TAF TAF EDDE
Valid from the 28 at 06:00 until the 29 at 06:00 UTC


280500Z 2806/2906 06003KT 0100 FZFG OVC000
BECMG 2809/2812 5000 NSW BKN005
TEMPO 2812/2818 SCT010
TEMPO 2821/2906 2500 BR



MET'MAP, your aeronautical weather chart ! - Copyright ORBIFLY December 2007 - Disclaimer

ORBIFLY MET'MAP TEAM :

Programming & Development : Alexandra Zaïnal
Concept & original design : Baudouin d'Aumeries
Assistance for programming : Marc-Olivier Méhu
Technical & hardware support : Manuel Goepfert

Contact : metmap@orbifly.com




SOURCES & CREDITS :

   NOAA